Time;durP1;ratioP1;P1;durP2;ratioP2;P2;SDS_P1;SDS_P2;PMS_P1;PMS_P2;Temp;Humidity;BMP_temperature;BMP_pressure;BME280_temperature;BME280_humidity;BME280_pressure;Samples;Min_cycle;Max_cycle;Signal;HPM_P1;HPM_P2
2023/01/27 00:00:53;;;;;;;8.63;5.10;;;5.80;76.60;;;;;;5060667;28;20198;-64
2023/01/27 00:03:21;;;;;;;8.47;5.90;;;5.80;76.50;;;;;;5064409;28;20644;-64
2023/01/27 00:05:49;;;;;;;10.87;5.60;;;5.80;76.70;;;;;;5065838;28;20205;-63
2023/01/27 00:08:17;;;;;;;7.97;5.67;;;5.80;77.40;;;;;;5058969;28;20213;-64
2023/01/27 00:10:44;;;;;;;10.47;6.23;;;5.80;76.60;;;;;;5064375;28;20202;-64
2023/01/27 00:13:28;;;;;;;10.03;5.23;;;5.80;76.60;;;;;;5063095;28;20544;-64
2023/01/27 00:15:55;;;;;;;10.90;6.10;;;5.80;76.60;;;;;;5061464;28;20686;-64
2023/01/27 00:18:22;;;;;;;15.50;7.53;;;5.80;76.30;;;;;;5068034;28;20197;-64
2023/01/27 00:26:35;;;;;;;12.70;7.07;;;5.80;76.40;;;;;;5059632;28;20224;-64
2023/01/27 00:29:02;;;;;;;9.83;7.17;;;5.80;77.30;;;;;;5068504;28;20260;-64
2023/01/27 00:34:16;;;;;;;12.73;6.90;;;5.80;77.50;;;;;;5064060;28;20216;-64
2023/01/27 00:36:43;;;;;;;13.47;6.60;;;5.70;77.60;;;;;;5060677;28;20206;-64
2023/01/27 00:39:11;;;;;;;11.60;7.43;;;5.70;77.90;;;;;;5061316;28;20628;-64
2023/01/27 00:41:42;;;;;;;13.77;7.33;;;5.70;78.10;;;;;;5065058;28;20290;-64
2023/01/27 00:44:11;;;;;;;10.50;6.77;;;5.70;77.90;;;;;;5063480;28;20625;-64
2023/01/27 00:46:41;;;;;;;11.20;6.70;;;5.70;77.70;;;;;;5068788;28;20202;-64
2023/01/27 00:49:09;;;;;;;10.77;6.63;;;5.70;77.00;;;;;;5066132;28;20263;-64
2023/01/27 00:51:36;;;;;;;12.47;6.63;;;5.70;77.10;;;;;;5065952;28;20201;-64
2023/01/27 00:54:04;;;;;;;12.13;7.00;;;5.60;77.50;;;;;;5062950;28;20214;-64
2023/01/27 00:56:31;;;;;;;9.13;6.40;;;5.60;77.20;;;;;;5065297;28;20277;-64
2023/01/27 00:58:59;;;;;;;13.47;6.30;;;5.60;77.30;;;;;;5061695;28;20190;-64
2023/01/27 01:01:26;;;;;;;12.40;6.23;;;5.60;77.60;;;;;;5062741;28;20209;-64
2023/01/27 01:03:53;;;;;;;13.50;7.13;;;5.60;77.30;;;;;;5065473;28;20237;-64
2023/01/27 01:06:21;;;;;;;11.47;7.23;;;5.50;77.00;;;;;;5064875;28;20198;-64
2023/01/27 01:08:48;;;;;;;11.70;6.43;;;5.50;76.70;;;;;;5061661;28;20600;-64
2023/01/27 01:11:17;;;;;;;22.93;7.37;;;5.50;77.30;;;;;;5071576;28;20263;-64
2023/01/27 01:13:45;;;;;;;16.57;7.40;;;5.50;77.10;;;;;;5069902;28;20221;-64
2023/01/27 01:16:15;;;;;;;9.77;6.37;;;5.50;77.10;;;;;;5062312;28;20213;-65
2023/01/27 01:18:42;;;;;;;17.17;7.23;;;5.40;77.00;;;;;;5066548;28;20189;-64
2023/01/27 01:21:11;;;;;;;11.87;7.30;;;5.40;77.30;;;;;;5064799;28;20204;-64
2023/01/27 01:23:44;;;;;;;14.83;6.83;;;5.40;77.60;;;;;;5069370;28;20240;-64
2023/01/27 01:26:12;;;;;;;11.30;6.80;;;5.40;78.20;;;;;;5067221;28;20217;-64
2023/01/27 01:28:39;;;;;;;12.10;5.63;;;5.30;78.00;;;;;;5070407;28;20214;-64
2023/01/27 01:31:10;;;;;;;10.73;7.13;;;5.30;77.50;;;;;;5060879;28;20632;-63
2023/01/27 01:33:38;;;;;;;11.47;7.00;;;5.30;77.70;;;;;;5063207;28;20202;-64
2023/01/27 01:36:10;;;;;;;10.03;6.60;;;5.30;77.70;;;;;;5068230;28;20754;-64
2023/01/27 01:38:37;;;;;;;10.83;6.10;;;5.30;77.90;;;;;;5064632;28;20909;-64
2023/01/27 01:41:06;;;;;;;12.23;6.97;;;5.20;77.80;;;;;;5065550;28;20270;-63
2023/01/27 01:43:33;;;;;;;11.77;6.53;;;5.30;77.80;;;;;;5061761;28;20197;-64
2023/01/27 01:46:01;;;;;;;11.10;6.70;;;5.20;77.60;;;;;;5064650;28;20263;-64
2023/01/27 01:48:38;;;;;;;11.23;7.30;;;5.20;77.70;;;;;;5063564;28;20280;-64
2023/01/27 01:51:07;;;;;;;13.10;7.07;;;5.20;77.30;;;;;;5063976;28;20315;-64
2023/01/27 01:53:40;;;;;;;11.77;6.43;;;5.20;77.50;;;;;;5062127;28;20636;-63
2023/01/27 01:56:15;;;;;;;13.90;6.43;;;5.20;78.20;;;;;;5066305;28;20213;-64
2023/01/27 01:58:44;;;;;;;12.90;7.17;;;5.20;77.50;;;;;;5063660;28;20194;-64
2023/01/27 02:01:13;;;;;;;10.67;6.50;;;5.20;77.70;;;;;;5070270;28;20203;-64
2023/01/27 02:03:43;;;;;;;10.43;6.40;;;5.10;77.80;;;;;;5068143;28;20248;-64
2023/01/27 02:06:12;;;;;;;15.30;6.73;;;5.10;77.80;;;;;;5063354;28;20645;-64
2023/01/27 02:08:43;;;;;;;13.10;7.57;;;5.10;77.90;;;;;;5064205;28;20220;-63
2023/01/27 02:11:11;;;;;;;10.57;6.63;;;5.10;78.30;;;;;;5081095;28;20209;-64
2023/01/27 02:13:38;;;;;;;15.13;7.20;;;5.10;78.20;;;;;;5069104;28;20220;-64
2023/01/27 02:16:08;;;;;;;11.40;6.37;;;5.10;77.70;;;;;;5066571;28;20313;-64
2023/01/27 02:18:38;;;;;;;14.70;7.43;;;5.00;77.70;;;;;;5059475;28;20531;-64
2023/01/27 02:21:06;;;;;;;12.13;7.03;;;5.00;78.00;;;;;;5064746;28;20201;-64
2023/01/27 02:23:57;;;;;;;11.67;6.87;;;5.00;77.80;;;;;;5071539;28;20550;-64
2023/01/27 02:26:29;;;;;;;12.37;6.23;;;5.00;77.70;;;;;;5065660;28;20209;-64
2023/01/27 02:28:59;;;;;;;13.93;7.03;;;5.00;77.10;;;;;;5070877;28;20285;-64
2023/01/27 02:31:26;;;;;;;12.23;7.33;;;5.00;76.70;;;;;;5103918;28;20697;-64
2023/01/27 02:33:59;;;;;;;10.83;6.60;;;5.00;76.80;;;;;;5067329;28;20308;-64
2023/01/27 02:36:31;;;;;;;10.03;6.43;;;4.90;76.70;;;;;;5070074;28;20308;-64
2023/01/27 02:39:01;;;;;;;10.17;5.97;;;4.90;77.00;;;;;;5067776;28;20289;-64
2023/01/27 02:41:34;;;;;;;8.73;6.57;;;4.90;77.00;;;;;;5068709;28;20210;-64
2023/01/27 02:44:01;;;;;;;10.67;6.50;;;4.90;77.40;;;;;;5072651;28;20294;-64
2023/01/27 02:46:28;;;;;;;11.30;5.77;;;4.90;77.20;;;;;;5071300;28;20217;-64
2023/01/27 02:48:56;;;;;;;10.20;6.60;;;4.90;76.30;;;;;;5098821;28;20214;-64
2023/01/27 02:51:23;;;;;;;9.50;5.93;;;4.90;76.30;;;;;;5071438;28;20212;-65
2023/01/27 02:53:50;;;;;;;14.47;6.50;;;4.90;76.50;;;;;;5067262;28;20292;-64
2023/01/27 02:56:19;;;;;;;10.57;6.87;;;4.90;76.20;;;;;;5060521;28;20226;-64
2023/01/27 02:58:47;;;;;;;12.37;7.20;;;4.90;76.50;;;;;;5064288;28;20703;-64
2023/01/27 03:01:17;;;;;;;15.83;7.57;;;4.90;76.40;;;;;;5085947;28;20210;-64
2023/01/27 03:03:45;;;;;;;10.23;6.60;;;4.90;76.10;;;;;;5069689;28;20237;-64
2023/01/27 03:06:18;;;;;;;11.20;6.20;;;4.90;75.40;;;;;;5064146;28;20716;-64
2023/01/27 03:08:45;;;;;;;11.07;7.23;;;4.90;75.40;;;;;;5066909;28;20204;-64
2023/01/27 03:12:18;;;;;;;12.53;7.30;;;4.90;75.20;;;;;;5071011;28;20208;-64
2023/01/27 03:14:03;;;;;;;10.33;6.17;;;4.90;74.80;;;;;;5061945;28;20664;-64
2023/01/27 03:19:16;;;;;;;12.57;6.57;;;4.90;74.20;;;;;;5077864;28;20266;-64
2023/01/27 03:21:44;;;;;;;10.97;6.53;;;4.90;74.20;;;;;;5065200;28;20215;-64
2023/01/27 03:24:11;;;;;;;10.83;6.43;;;4.90;74.10;;;;;;5070707;28;20211;-64
2023/01/27 03:26:38;;;;;;;10.60;6.43;;;4.90;73.80;;;;;;5060117;28;20636;-64
2023/01/27 03:31:52;;;;;;;10.90;6.20;;;4.90;73.90;;;;;;5059283;28;20215;-64
2023/01/27 03:34:20;;;;;;;12.53;6.23;;;4.90;73.80;;;;;;5069111;28;20546;-64
2023/01/27 03:47:53;;;;;;;11.47;6.57;;;4.80;73.50;;;;;;5061886;28;20209;-63
2023/01/27 03:50:29;;;;;;;12.13;6.43;;;4.80;73.20;;;;;;5062240;28;20206;-64
2023/01/27 03:53:03;;;;;;;10.63;6.43;;;4.80;73.20;;;;;;5068169;28;20209;-64
2023/01/27 03:55:31;;;;;;;13.50;6.60;;;4.80;73.10;;;;;;5065616;28;20371;-64
2023/01/27 03:58:17;;;;;;;10.87;6.50;;;4.80;73.40;;;;;;5069598;28;20517;-64
2023/01/27 04:00:53;;;;;;;10.60;7.23;;;4.80;73.60;;;;;;5063439;28;20194;-64
2023/01/27 04:07:12;;;;;;;12.23;5.90;;;4.80;73.10;;;;;;5061019;28;20205;-65
2023/01/27 04:09:39;;;;;;;10.63;7.27;;;4.80;73.00;;;;;;5055347;28;20276;-65
2023/01/27 04:12:08;;;;;;;9.97;5.70;;;4.80;72.90;;;;;;5051619;28;20200;-64
2023/01/27 04:14:37;;;;;;;12.73;5.73;;;4.80;72.90;;;;;;5047320;28;20194;-65
2023/01/27 04:17:06;;;;;;;9.77;5.77;;;4.80;72.80;;;;;;5054729;28;20201;-65
2023/01/27 04:19:33;;;;;;;10.20;6.40;;;4.80;73.10;;;;;;5052872;28;20292;-65
2023/01/27 04:22:01;;;;;;;9.80;6.73;;;4.80;73.00;;;;;;5052791;28;20642;-65
2023/01/27 04:24:28;;;;;;;11.10;6.07;;;4.80;72.90;;;;;;5059433;28;20223;-65
2023/01/27 04:27:07;;;;;;;10.10;5.83;;;4.80;73.00;;;;;;5056200;28;20228;-65
2023/01/27 04:29:36;;;;;;;10.70;6.27;;;4.80;72.80;;;;;;5054714;28;20671;-65
2023/01/27 04:32:08;;;;;;;8.93;6.37;;;4.80;72.60;;;;;;5051000;28;20225;-65
2023/01/27 04:34:36;;;;;;;12.57;7.07;;;4.80;72.80;;;;;;5053133;28;20198;-65
2023/01/27 04:37:04;;;;;;;10.97;5.73;;;4.80;73.00;;;;;;5047405;28;20205;-65
2023/01/27 04:39:32;;;;;;;10.20;6.47;;;4.80;73.20;;;;;;5052668;28;20204;-65
2023/01/27 04:41:59;;;;;;;15.10;6.70;;;4.80;73.10;;;;;;5052121;28;20224;-65
2023/01/27 04:44:28;;;;;;;9.90;6.43;;;4.80;73.10;;;;;;5044196;28;20228;-65
2023/01/27 04:46:55;;;;;;;11.00;6.37;;;4.80;73.00;;;;;;5054604;28;20670;-65
2023/01/27 04:49:25;;;;;;;10.27;6.13;;;4.80;73.10;;;;;;5060177;28;20201;-65
2023/01/27 04:51:53;;;;;;;10.77;7.10;;;4.80;73.30;;;;;;5052415;28;20209;-65
2023/01/27 04:54:20;;;;;;;13.60;6.97;;;4.70;73.40;;;;;;5054715;28;20240;-65
2023/01/27 04:56:59;;;;;;;11.83;8.07;;;4.70;73.50;;;;;;5054983;28;20216;-65
2023/01/27 04:59:26;;;;;;;11.07;7.00;;;4.70;73.40;;;;;;5048435;28;20201;-65
2023/01/27 05:01:54;;;;;;;8.77;6.33;;;4.60;73.40;;;;;;5052520;28;20201;-65
2023/01/27 05:04:21;;;;;;;11.90;6.77;;;4.60;73.50;;;;;;5054441;28;20246;-65
2023/01/27 05:06:48;;;;;;;9.23;6.27;;;4.60;73.70;;;;;;5049525;28;20216;-65
2023/01/27 05:09:15;;;;;;;12.50;7.23;;;4.50;73.80;;;;;;5051776;28;20210;-65
2023/01/27 05:11:42;;;;;;;14.37;7.87;;;4.50;73.80;;;;;;5048786;28;20265;-66
2023/01/27 05:14:09;;;;;;;11.53;7.20;;;4.40;74.00;;;;;;5040148;28;20195;-65
2023/01/27 05:16:37;;;;;;;13.53;6.83;;;4.30;74.10;;;;;;5037590;28;20557;-64
2023/01/27 05:19:06;;;;;;;10.13;6.37;;;4.30;74.40;;;;;;5040698;28;20195;-65
2023/01/27 05:21:33;;;;;;;10.83;7.57;;;4.20;74.50;;;;;;5038549;28;20209;-65
2023/01/27 05:24:01;;;;;;;14.67;7.00;;;4.20;74.80;;;;;;5037755;28;20203;-65
2023/01/27 05:26:28;;;;;;;12.03;7.80;;;4.10;75.00;;;;;;5039497;28;20415;-65
2023/01/27 05:28:57;;;;;;;12.07;7.67;;;4.10;75.20;;;;;;5038680;28;20200;-65
2023/01/27 05:31:30;;;;;;;16.13;8.23;;;4.00;75.60;;;;;;5036963;28;20212;-64
2023/01/27 05:33:59;;;;;;;15.80;8.33;;;3.90;75.90;;;;;;5040500;28;20197;-65
2023/01/27 05:36:28;;;;;;;13.20;7.80;;;3.90;76.20;;;;;;5036525;28;20210;-65
2023/01/27 05:38:56;;;;;;;11.77;7.03;;;3.80;76.30;;;;;;5031733;28;20205;-65
2023/01/27 05:41:23;;;;;;;16.23;7.87;;;3.80;76.30;;;;;;5038902;28;20730;-65
2023/01/27 05:43:52;;;;;;;13.13;7.57;;;3.80;76.30;;;;;;5042067;28;20224;-65
2023/01/27 05:46:25;;;;;;;10.73;7.40;;;3.70;76.20;;;;;;5042003;28;20201;-65
2023/01/27 05:48:55;;;;;;;11.10;7.27;;;3.70;76.40;;;;;;5043210;28;20198;-65
2023/01/27 05:51:24;;;;;;;14.33;7.73;;;3.70;76.60;;;;;;5043549;28;20205;-65
2023/01/27 05:53:52;;;;;;;14.30;8.30;;;3.70;76.70;;;;;;5039276;28;20234;-65
2023/01/27 05:56:19;;;;;;;12.50;8.00;;;3.70;76.80;;;;;;5038098;28;20206;-65
2023/01/27 05:58:47;;;;;;;12.07;7.03;;;3.70;77.10;;;;;;5040198;28;20201;-65
2023/01/27 06:01:19;;;;;;;13.87;6.73;;;3.70;77.00;;;;;;5036389;28;20202;-65
2023/01/27 06:03:47;;;;;;;12.23;7.27;;;3.60;77.00;;;;;;5035690;28;20769;-65
2023/01/27 06:06:18;;;;;;;13.10;8.27;;;3.60;76.80;;;;;;5036578;28;20200;-66
2023/01/27 06:08:46;;;;;;;11.37;6.80;;;3.60;76.80;;;;;;5034454;28;20200;-65
2023/01/27 06:11:14;;;;;;;13.47;6.93;;;3.50;76.60;;;;;;5036104;28;20654;-65
2023/01/27 06:13:41;;;;;;;10.40;7.20;;;3.50;76.80;;;;;;5043002;28;20208;-65
2023/01/27 06:16:12;;;;;;;14.10;7.27;;;3.50;76.90;;;;;;5041530;28;20235;-65
2023/01/27 06:18:39;;;;;;;12.53;7.47;;;3.50;77.00;;;;;;5036054;28;20222;-65
2023/01/27 06:21:09;;;;;;;12.47;6.70;;;3.40;76.90;;;;;;5037832;28;20207;-65
2023/01/27 06:23:37;;;;;;;11.53;7.57;;;3.40;77.00;;;;;;5034122;28;20210;-65
2023/01/27 06:26:08;;;;;;;12.93;7.00;;;3.40;76.70;;;;;;5034525;28;20202;-65
2023/01/27 06:28:36;;;;;;;13.87;7.23;;;3.30;76.30;;;;;;5038388;28;20209;-64
2023/01/27 06:31:09;;;;;;;16.90;7.80;;;3.30;76.40;;;;;;5031465;28;20206;-65
2023/01/27 06:33:37;;;;;;;14.00;6.60;;;3.30;76.40;;;;;;5038930;28;20244;-65
2023/01/27 06:36:07;;;;;;;15.20;7.27;;;3.30;76.50;;;;;;5038391;28;20201;-65
2023/01/27 06:38:34;;;;;;;10.70;6.83;;;3.30;76.50;;;;;;5040748;28;20201;-64
2023/01/27 06:41:01;;;;;;;13.50;7.90;;;3.30;76.50;;;;;;5041282;28;20201;-65
2023/01/27 06:43:28;;;;;;;9.83;5.70;;;3.30;76.50;;;;;;5040933;28;20539;-65
2023/01/27 06:45:58;;;;;;;11.00;6.53;;;3.30;76.70;;;;;;5036072;28;20277;-65
2023/01/27 06:48:26;;;;;;;13.93;7.70;;;3.30;76.60;;;;;;5035469;28;20231;-65
2023/01/27 06:50:54;;;;;;;11.77;6.37;;;3.30;76.70;;;;;;5040008;28;20514;-65
2023/01/27 06:53:22;;;;;;;13.77;7.27;;;3.20;76.50;;;;;;5023560;28;20218;-65
2023/01/27 06:55:55;;;;;;;11.23;6.90;;;3.20;76.50;;;;;;5034328;28;20586;-65
2023/01/27 06:58:22;;;;;;;14.57;7.43;;;3.20;76.50;;;;;;5038973;28;20281;-65
2023/01/27 07:00:50;;;;;;;12.37;7.07;;;3.20;76.20;;;;;;5029340;28;20198;-65
2023/01/27 07:03:17;;;;;;;15.10;7.13;;;3.30;76.10;;;;;;5031026;28;20247;-65
2023/01/27 07:05:44;;;;;;;13.73;6.47;;;3.30;76.10;;;;;;5040654;28;20226;-65
2023/01/27 07:08:11;;;;;;;12.67;7.63;;;3.30;76.10;;;;;;5039992;28;20687;-65
2023/01/27 07:10:38;;;;;;;13.30;6.80;;;3.20;76.20;;;;;;5035154;28;20535;-65
2023/01/27 07:13:10;;;;;;;13.80;6.50;;;3.30;77.10;;;;;;5036396;28;20207;-65
2023/01/27 07:15:38;;;;;;;11.87;7.20;;;3.30;76.50;;;;;;5040534;28;20651;-65
2023/01/27 07:18:05;;;;;;;14.20;7.07;;;3.30;76.20;;;;;;5031484;28;20198;-65
2023/01/27 07:20:33;;;;;;;11.97;6.87;;;3.30;76.10;;;;;;5038487;28;20699;-65
2023/01/27 07:23:02;;;;;;;11.03;6.70;;;3.30;76.10;;;;;;5036008;28;20203;-65
2023/01/27 07:25:30;;;;;;;10.37;6.80;;;3.30;76.00;;;;;;5043985;28;20219;-65
2023/01/27 07:27:58;;;;;;;10.90;6.63;;;3.30;76.10;;;;;;5034907;28;20227;-65
2023/01/27 07:30:26;;;;;;;14.87;7.70;;;3.30;76.00;;;;;;5039013;28;20634;-65
2023/01/27 07:32:54;;;;;;;13.33;7.80;;;3.30;76.20;;;;;;5039060;28;20199;-65
2023/01/27 07:35:22;;;;;;;14.43;6.53;;;3.30;76.20;;;;;;5038771;28;20631;-65
2023/01/27 07:37:49;;;;;;;11.10;7.23;;;3.30;76.40;;;;;;5038332;28;20199;-65
2023/01/27 07:40:17;;;;;;;15.10;7.90;;;3.40;76.40;;;;;;5036770;28;20197;-65
2023/01/27 07:42:44;;;;;;;14.33;7.40;;;3.40;76.20;;;;;;5034289;28;20196;-65
2023/01/27 07:45:11;;;;;;;13.57;7.70;;;3.40;76.30;;;;;;5043449;28;20255;-65
2023/01/27 07:47:38;;;;;;;14.73;7.77;;;3.40;77.10;;;;;;5025590;28;20197;-65
2023/01/27 07:50:06;;;;;;;13.20;7.73;;;3.50;76.10;;;;;;5031554;28;20563;-66
2023/01/27 07:52:33;;;;;;;12.17;6.60;;;3.50;76.10;;;;;;5037665;28;20232;-65
2023/01/27 07:55:00;;;;;;;12.40;7.17;;;3.50;76.00;;;;;;5033352;28;20263;-65
2023/01/27 07:57:27;;;;;;;14.67;7.93;;;3.60;76.20;;;;;;5032923;28;20262;-66
2023/01/27 07:59:55;;;;;;;12.07;7.73;;;3.70;76.50;;;;;;5041721;28;20203;-65
2023/01/27 08:02:23;;;;;;;11.20;6.90;;;3.70;76.30;;;;;;5036478;28;20255;-65
2023/01/27 08:04:50;;;;;;;11.60;7.07;;;3.80;75.60;;;;;;5037604;28;20260;-65
2023/01/27 08:07:20;;;;;;;11.83;7.50;;;3.90;75.20;;;;;;5035302;28;20214;-65
2023/01/27 08:09:47;;;;;;;12.53;7.07;;;3.80;74.60;;;;;;5038799;28;20202;-65
2023/01/27 08:12:14;;;;;;;11.63;6.67;;;3.80;75.00;;;;;;5031426;28;20205;-65
2023/01/27 08:14:41;;;;;;;16.87;7.57;;;3.80;74.70;;;;;;5039208;28;20220;-65
2023/01/27 08:17:08;;;;;;;12.47;7.00;;;3.80;75.10;;;;;;5037496;28;20244;-65
2023/01/27 08:19:35;;;;;;;12.87;7.20;;;3.80;75.20;;;;;;5031876;28;20296;-65
2023/01/27 08:22:02;;;;;;;12.73;7.53;;;3.80;75.20;;;;;;5038372;28;20674;-66
2023/01/27 08:24:29;;;;;;;14.60;7.03;;;3.70;75.20;;;;;;5039280;28;20215;-65
2023/01/27 08:26:56;;;;;;;14.97;7.50;;;3.80;75.40;;;;;;5038917;28;20201;-65
2023/01/27 08:29:23;;;;;;;12.37;7.40;;;3.70;75.30;;;;;;5037693;28;20200;-65
2023/01/27 08:31:50;;;;;;;9.70;6.77;;;3.70;75.20;;;;;;5041504;28;20403;-65
2023/01/27 08:34:18;;;;;;;10.40;6.57;;;3.70;75.10;;;;;;5034723;28;20264;-65
2023/01/27 08:36:45;;;;;;;10.77;6.57;;;3.80;75.40;;;;;;5032940;28;20201;-65
2023/01/27 08:39:12;;;;;;;9.50;6.13;;;3.80;75.20;;;;;;5040306;28;20263;-65
2023/01/27 08:41:39;;;;;;;12.67;6.57;;;3.80;75.30;;;;;;5032738;28;20262;-65
2023/01/27 08:44:06;;;;;;;12.83;6.27;;;3.80;75.40;;;;;;5037001;28;20226;-65
2023/01/27 08:46:33;;;;;;;8.93;6.53;;;3.90;74.70;;;;;;5039404;28;20281;-65
2023/01/27 08:49:01;;;;;;;10.13;7.10;;;3.90;74.80;;;;;;5026356;28;20242;-65
2023/01/27 08:51:28;;;;;;;12.03;6.33;;;4.00;74.40;;;;;;5037741;28;20209;-65
2023/01/27 08:53:55;;;;;;;10.87;6.37;;;4.10;74.60;;;;;;5041698;28;20213;-65
2023/01/27 08:56:22;;;;;;;10.60;6.53;;;4.20;74.40;;;;;;5041627;28;20537;-65
2023/01/27 08:58:51;;;;;;;11.63;6.90;;;4.30;74.00;;;;;;5038007;28;20640;-65
2023/01/27 09:01:19;;;;;;;12.70;6.93;;;4.30;73.50;;;;;;5037021;28;20285;-65
2023/01/27 09:03:46;;;;;;;10.87;6.23;;;4.40;73.80;;;;;;5038556;28;20235;-65
2023/01/27 09:06:15;;;;;;;12.23;5.83;;;4.40;73.20;;;;;;5038768;28;20612;-64
2023/01/27 09:08:43;;;;;;;11.40;6.30;;;4.60;73.80;;;;;;5027924;28;20224;-66
2023/01/27 09:11:12;;;;;;;12.03;6.37;;;4.80;73.50;;;;;;5035455;28;20209;-65
2023/01/27 09:13:40;;;;;;;11.33;7.20;;;5.00;71.10;;;;;;5031877;28;20647;-66
2023/01/27 09:16:08;;;;;;;12.03;6.50;;;5.20;70.50;;;;;;5037627;28;20278;-64
2023/01/27 09:18:35;;;;;;;10.53;5.53;;;5.40;70.20;;;;;;5039962;28;20202;-65
2023/01/27 09:21:04;;;;;;;13.80;6.10;;;5.60;69.10;;;;;;5043634;28;20207;-65
2023/01/27 09:23:32;;;;;;;11.60;5.30;;;5.80;68.50;;;;;;5045442;28;20210;-65
2023/01/27 09:25:59;;;;;;;9.33;5.53;;;6.00;67.80;;;;;;5041389;28;20214;-65
2023/01/27 09:28:26;;;;;;;10.23;5.90;;;6.10;67.90;;;;;;5035007;28;20202;-65
2023/01/27 09:30:57;;;;;;;10.33;5.43;;;6.20;66.70;;;;;;5041738;28;20213;-64
2023/01/27 09:33:25;;;;;;;11.93;5.47;;;6.10;66.50;;;;;;5040348;28;20620;-65
2023/01/27 09:36:08;;;;;;;8.67;5.57;;;6.10;66.80;;;;;;5031158;28;20207;-64
2023/01/27 09:38:40;;;;;;;7.90;5.47;;;6.10;66.70;;;;;;5035919;28;20538;-65
2023/01/27 09:41:19;;;;;;;11.43;6.00;;;6.10;67.70;;;;;;5036538;28;20196;-65
2023/01/27 09:44:11;;;;;;;7.20;5.60;;;6.20;66.90;;;;;;5031037;28;20218;-65
2023/01/27 09:47:04;;;;;;;9.43;5.50;;;6.30;66.90;;;;;;5042204;28;20315;-64
2023/01/27 09:50:13;;;;;;;8.17;4.80;;;6.50;66.70;;;;;;5037433;28;20192;-65
2023/01/27 09:53:08;;;;;;;9.20;5.20;;;6.60;67.00;;;;;;5036301;28;20219;-62
2023/01/27 09:55:44;;;;;;;7.63;4.73;;;6.70;65.80;;;;;;5038288;28;20217;-65
2023/01/27 09:58:31;;;;;;;7.87;5.23;;;6.80;64.90;;;;;;5036862;28;20207;-64
2023/01/27 10:01:19;;;;;;;12.03;4.87;;;6.90;65.50;;;;;;5033989;28;20199;-65
2023/01/27 10:04:09;;;;;;;12.37;5.00;;;7.00;64.70;;;;;;5043462;28;20316;-64
2023/01/27 10:07:01;;;;;;;8.13;4.63;;;7.20;64.70;;;;;;5031858;28;20195;-65
2023/01/27 10:09:46;;;;;;;7.10;4.10;;;7.20;62.60;;;;;;5031984;28;20570;-63
2023/01/27 10:12:16;;;;;;;8.70;5.07;;;7.30;63.70;;;;;;5043022;28;20202;-65
2023/01/27 10:14:55;;;;;;;6.57;4.53;;;7.40;63.60;;;;;;5042823;28;20218;-64
2023/01/27 10:17:31;;;;;;;8.43;5.33;;;7.40;64.20;;;;;;5041673;28;20647;-63
2023/01/27 10:20:08;;;;;;;8.53;5.00;;;7.50;63.10;;;;;;5036658;28;20195;-64
2023/01/27 10:22:50;;;;;;;10.47;5.70;;;7.60;63.70;;;;;;5036239;28;20195;-64
2023/01/27 10:25:29;;;;;;;6.67;4.50;;;7.60;64.50;;;;;;5050746;28;20289;-64
2023/01/27 10:28:01;;;;;;;6.40;4.07;;;7.70;63.40;;;;;;5035435;28;20223;-63
2023/01/27 10:30:36;;;;;;;7.33;4.67;;;7.70;63.60;;;;;;5031753;28;20592;-64
2023/01/27 10:33:17;;;;;;;11.57;4.60;;;7.80;63.00;;;;;;5036541;28;20723;-64
2023/01/27 10:35:58;;;;;;;7.80;5.40;;;7.90;63.60;;;;;;5033007;28;20213;-64
2023/01/27 10:38:38;;;;;;;7.53;4.60;;;7.90;63.60;;;;;;5032125;28;20206;-63
2023/01/27 10:41:27;;;;;;;8.87;4.50;;;8.00;64.20;;;;;;5037543;28;20261;-63
2023/01/27 10:43:57;;;;;;;6.27;4.17;;;8.10;64.30;;;;;;5036544;28;20210;-64
2023/01/27 10:46:29;;;;;;;5.60;4.10;;;8.10;63.80;;;;;;5020293;28;20204;-64
2023/01/27 10:49:23;;;;;;;9.23;4.00;;;8.20;63.30;;;;;;5035096;28;20583;-65
2023/01/27 10:52:07;;;;;;;7.10;4.47;;;8.30;63.60;;;;;;5030385;28;20281;-64
2023/01/27 10:54:42;;;;;;;6.87;4.20;;;8.30;62.50;;;;;;5035264;28;20264;-64
2023/01/27 10:57:35;;;;;;;8.00;3.83;;;8.30;62.60;;;;;;5038431;28;20272;-64
2023/01/27 11:00:13;;;;;;;7.23;4.07;;;8.30;61.40;;;;;;5032502;28;20580;-64
2023/01/27 11:03:06;;;;;;;8.07;3.50;;;8.40;61.50;;;;;;5034091;28;20234;-63
2023/01/27 11:05:38;;;;;;;5.80;4.30;;;8.40;62.00;;;;;;5037498;28;20215;-64
2023/01/27 11:08:17;;;;;;;6.77;4.07;;;8.40;60.90;;;;;;5039555;28;20208;-64
2023/01/27 11:13:36;;;;;;;5.50;3.07;;;8.40;61.40;;;;;;5034229;28;20202;-65
2023/01/27 11:16:08;;;;;;;6.47;3.77;;;8.40;61.70;;;;;;5033753;28;20228;-64
2023/01/27 11:18:37;;;;;;;13.27;3.87;;;8.40;61.70;;;;;;5033921;28;20516;-65
2023/01/27 11:21:09;;;;;;;5.73;3.40;;;8.40;62.90;;;;;;5040964;28;20276;-64
2023/01/27 11:23:44;;;;;;;4.23;3.07;;;8.60;61.90;;;;;;5029583;28;20215;-64
2023/01/27 11:26:32;;;;;;;6.03;4.07;;;8.70;63.20;;;;;;5038528;28;20254;-64
2023/01/27 11:29:16;;;;;;;7.10;3.73;;;8.70;63.10;;;;;;5037178;28;20199;-63
2023/01/27 11:31:50;;;;;;;4.90;3.30;;;8.80;60.50;;;;;;5026739;28;20207;-63
2023/01/27 11:35:08;;;;;;;7.33;3.23;;;8.70;58.60;;;;;;5045489;28;20206;-64
2023/01/27 11:37:46;;;;;;;3.80;2.83;;;8.60;60.60;;;;;;5047216;28;20219;-64
2023/01/27 11:40:36;;;;;;;6.60;2.57;;;8.50;59.90;;;;;;5042162;28;20570;-63
2023/01/27 11:43:04;;;;;;;7.67;2.83;;;8.60;60.70;;;;;;5036032;28;20210;-64
2023/01/27 11:45:34;;;;;;;7.00;2.60;;;8.60;60.40;;;;;;5038761;28;20211;-62
2023/01/27 11:48:06;;;;;;;5.83;2.37;;;8.70;61.40;;;;;;5032656;28;20338;-62
2023/01/27 11:50:35;;;;;;;7.20;3.33;;;8.80;61.10;;;;;;5037260;28;20218;-64
2023/01/27 11:53:35;;;;;;;6.83;3.63;;;8.80;59.30;;;;;;5032960;28;20544;-64
2023/01/27 11:56:07;;;;;;;10.27;3.60;;;8.90;58.90;;;;;;5034043;28;20200;-63
2023/01/27 11:59:03;;;;;;;5.33;2.50;;;8.80;59.20;;;;;;5037651;28;20226;-64
2023/01/27 12:01:46;;;;;;;8.40;3.77;;;8.70;57.90;;;;;;5037751;28;20635;-63
2023/01/27 12:04:50;;;;;;;5.40;3.47;;;8.50;58.20;;;;;;5038611;28;20236;-63
2023/01/27 12:07:46;;;;;;;5.57;2.97;;;8.30;59.50;;;;;;5033028;28;20196;-63
2023/01/27 12:10:35;;;;;;;5.30;3.37;;;8.00;60.20;;;;;;5035105;28;20201;-63
2023/01/27 12:13:17;;;;;;;5.80;3.07;;;7.80;60.10;;;;;;5033966;28;20209;-63
2023/01/27 12:15:59;;;;;;;7.53;3.30;;;7.80;61.80;;;;;;5037582;28;20229;-64
2023/01/27 12:18:30;;;;;;;5.97;3.03;;;7.80;62.00;;;;;;5034241;28;20249;-66
2023/01/27 12:21:07;;;;;;;4.60;3.33;;;8.00;63.40;;;;;;5034633;28;20207;-64
2023/01/27 12:23:39;;;;;;;5.63;3.03;;;8.20;61.80;;;;;;5034841;28;20203;-65
2023/01/27 12:26:08;;;;;;;6.80;3.53;;;8.60;59.90;;;;;;5032348;28;20217;-65
2023/01/27 12:28:57;;;;;;;6.73;3.23;;;8.80;59.00;;;;;;5040315;28;20226;-65
2023/01/27 12:31:28;;;;;;;7.57;3.60;;;8.80;58.70;;;;;;5042112;28;20530;-64
2023/01/27 12:34:06;;;;;;;4.33;3.03;;;8.80;59.80;;;;;;5041781;28;20196;-65
2023/01/27 12:36:39;;;;;;;6.13;3.97;;;8.70;59.10;;;;;;5038975;28;20203;-63
2023/01/27 12:39:56;;;;;;;7.23;3.57;;;8.60;60.30;;;;;;5039635;28;20224;-63
2023/01/27 12:42:39;;;;;;;3.83;3.27;;;8.50;60.00;;;;;;5014854;28;20205;-63
2023/01/27 12:45:33;;;;;;;8.13;3.10;;;8.40;60.10;;;;;;5043052;28;20310;-63
2023/01/27 12:48:12;;;;;;;4.33;3.10;;;8.20;59.80;;;;;;5033571;28;20191;-64
2023/01/27 12:50:41;;;;;;;8.07;3.60;;;8.10;61.20;;;;;;5037443;28;20204;-65
2023/01/27 12:53:17;;;;;;;6.83;2.83;;;8.00;61.00;;;;;;5040136;28;20200;-65
2023/01/27 12:56:07;;;;;;;6.13;3.17;;;8.00;61.80;;;;;;5049080;28;20551;-65
2023/01/27 12:58:58;;;;;;;6.23;4.63;;;7.90;62.30;;;;;;5041099;28;20203;-65
2023/01/27 13:01:37;;;;;;;6.73;3.40;;;7.90;61.10;;;;;;5037806;28;20226;-65
2023/01/27 13:04:13;;;;;;;9.07;2.83;;;7.90;61.10;;;;;;5038796;28;20258;-64
2023/01/27 13:06:50;;;;;;;8.13;3.13;;;7.80;60.70;;;;;;5037009;28;20223;-64
2023/01/27 13:09:52;;;;;;;3.80;2.50;;;7.80;61.20;;;;;;5034143;28;20596;-65
2023/01/27 13:12:24;;;;;;;6.10;2.80;;;7.80;60.80;;;;;;5032612;28;20203;-64
2023/01/27 13:15:14;;;;;;;8.53;3.33;;;7.80;62.20;;;;;;5040953;28;20206;-65
2023/01/27 13:17:47;;;;;;;4.20;2.73;;;7.70;63.30;;;;;;5034528;28;20217;-64
2023/01/27 13:20:36;;;;;;;7.60;2.63;;;7.70;62.60;;;;;;5030339;28;20195;-64
2023/01/27 13:23:17;;;;;;;5.47;2.90;;;7.70;61.10;;;;;;5041230;28;20207;-65
2023/01/27 13:26:00;;;;;;;3.70;2.00;;;7.70;62.60;;;;;;5038363;28;20211;-65
2023/01/27 13:28:35;;;;;;;3.87;2.10;;;7.70;60.60;;;;;;5041580;28;20225;-64
2023/01/27 13:31:41;;;;;;;3.53;2.30;;;7.70;60.20;;;;;;5043272;28;20195;-65
2023/01/27 13:34:12;;;;;;;5.90;2.93;;;7.60;60.70;;;;;;5037222;28;20524;-65
2023/01/27 13:37:24;;;;;;;4.17;2.10;;;7.70;62.50;;;;;;5034694;28;20197;-65
2023/01/27 13:40:29;;;;;;;5.67;2.27;;;7.70;61.90;;;;;;5044792;28;20555;-64
2023/01/27 13:43:11;;;;;;;5.67;2.40;;;7.70;61.10;;;;;;5031404;28;20221;-64
2023/01/27 13:46:01;;;;;;;4.73;2.33;;;7.70;59.60;;;;;;5035299;28;20291;-65
2023/01/27 13:48:30;;;;;;;3.77;2.30;;;7.70;61.00;;;;;;5043020;28;20286;-65
2023/01/27 13:51:10;;;;;;;6.47;2.50;;;7.70;60.40;;;;;;5042692;28;20200;-64